sensor_id;sensor_type;location;lat;lon;timestamp;pressure;altitude;pressure_sealevel;temperature;humidity
55755;BME280;41674;52.290;-1.474;2022-12-19T00:01:00;99759.19;;;7.52;100.00
55755;BME280;41674;52.290;-1.474;2022-12-19T00:03:22;99757.73;;;7.42;100.00
55755;BME280;41674;52.290;-1.474;2022-12-19T00:05:51;99753.17;;;7.22;100.00
55755;BME280;41674;52.290;-1.474;2022-12-19T00:08:21;99745.86;;;7.46;100.00
55755;BME280;41674;52.290;-1.474;2022-12-19T00:10:57;99736.94;;;7.31;100.00
55755;BME280;41674;52.290;-1.474;2022-12-19T00:13:20;99727.41;;;7.67;100.00
55755;BME280;41674;52.290;-1.474;2022-12-19T00:15:50;99743.67;;;8.13;100.00
55755;BME280;41674;52.290;-1.474;2022-12-19T00:18:19;99735.95;;;7.64;100.00
55755;BME280;41674;52.290;-1.474;2022-12-19T00:20:56;99736.89;;;7.83;100.00
55755;BME280;41674;52.290;-1.474;2022-12-19T00:23:18;99736.47;;;7.40;100.00
55755;BME280;41674;52.290;-1.474;2022-12-19T00:25:48;99734.47;;;8.10;100.00
55755;BME280;41674;52.290;-1.474;2022-12-19T00:28:18;99745.52;;;7.85;100.00
55755;BME280;41674;52.290;-1.474;2022-12-19T00:30:47;99733.49;;;7.96;100.00
55755;BME280;41674;52.290;-1.474;2022-12-19T00:33:17;99731.80;;;8.20;100.00
55755;BME280;41674;52.290;-1.474;2022-12-19T00:35:46;99734.41;;;8.19;100.00
55755;BME280;41674;52.290;-1.474;2022-12-19T00:38:16;99727.54;;;8.04;100.00
55755;BME280;41674;52.290;-1.474;2022-12-19T00:40:46;99724.94;;;7.51;100.00
55755;BME280;41674;52.290;-1.474;2022-12-19T00:43:15;99731.68;;;7.65;100.00
55755;BME280;41674;52.290;-1.474;2022-12-19T00:45:45;99733.84;;;8.16;100.00
55755;BME280;41674;52.290;-1.474;2022-12-19T00:48:15;99731.96;;;8.33;100.00
55755;BME280;41674;52.290;-1.474;2022-12-19T00:50:44;99736.60;;;8.40;100.00
55755;BME280;41674;52.290;-1.474;2022-12-19T00:53:14;99727.50;;;7.79;100.00
55755;BME280;41674;52.290;-1.474;2022-12-19T00:55:43;99726.19;;;7.57;100.00
55755;BME280;41674;52.290;-1.474;2022-12-19T00:58:13;99720.33;;;7.82;100.00
55755;BME280;41674;52.290;-1.474;2022-12-19T01:00:43;99712.39;;;7.70;100.00
55755;BME280;41674;52.290;-1.474;2022-12-19T01:03:12;99713.31;;;8.13;100.00
55755;BME280;41674;52.290;-1.474;2022-12-19T01:05:42;99715.26;;;8.00;100.00
55755;BME280;41674;52.290;-1.474;2022-12-19T01:08:11;99709.06;;;8.52;100.00
55755;BME280;41674;52.290;-1.474;2022-12-19T01:10:44;99702.61;;;8.08;100.00
55755;BME280;41674;52.290;-1.474;2022-12-19T01:13:10;99698.45;;;8.08;100.00
55755;BME280;41674;52.290;-1.474;2022-12-19T01:15:40;99693.69;;;8.11;100.00
55755;BME280;41674;52.290;-1.474;2022-12-19T01:18:10;99695.21;;;8.21;100.00
55755;BME280;41674;52.290;-1.474;2022-12-19T01:20:41;99687.57;;;8.14;100.00
55755;BME280;41674;52.290;-1.474;2022-12-19T01:23:09;99678.35;;;7.69;100.00
55755;BME280;41674;52.290;-1.474;2022-12-19T01:25:39;99696.75;;;8.48;100.00
55755;BME280;41674;52.290;-1.474;2022-12-19T01:28:13;99688.12;;;8.63;100.00
55755;BME280;41674;52.290;-1.474;2022-12-19T01:30:39;99686.37;;;7.99;100.00
55755;BME280;41674;52.290;-1.474;2022-12-19T01:33:09;99680.81;;;8.35;100.00
55755;BME280;41674;52.290;-1.474;2022-12-19T01:35:37;99692.54;;;8.41;100.00
55755;BME280;41674;52.290;-1.474;2022-12-19T01:38:08;99680.57;;;9.16;100.00
55755;BME280;41674;52.290;-1.474;2022-12-19T01:40:36;99693.92;;;8.56;100.00
55755;BME280;41674;52.290;-1.474;2022-12-19T01:43:11;99698.81;;;7.88;100.00
55755;BME280;41674;52.290;-1.474;2022-12-19T01:45:35;99693.31;;;8.22;100.00
55755;BME280;41674;52.290;-1.474;2022-12-19T01:48:13;99691.60;;;8.78;100.00
55755;BME280;41674;52.290;-1.474;2022-12-19T01:50:38;99695.08;;;8.48;100.00
55755;BME280;41674;52.290;-1.474;2022-12-19T01:53:07;99681.40;;;8.31;100.00
55755;BME280;41674;52.290;-1.474;2022-12-19T01:55:35;99688.38;;;8.40;100.00
55755;BME280;41674;52.290;-1.474;2022-12-19T01:58:03;99687.21;;;8.29;100.00
55755;BME280;41674;52.290;-1.474;2022-12-19T02:00:33;99682.31;;;8.39;100.00
55755;BME280;41674;52.290;-1.474;2022-12-19T02:03:07;99684.56;;;8.87;100.00
55755;BME280;41674;52.290;-1.474;2022-12-19T02:05:32;99689.97;;;9.06;100.00
55755;BME280;41674;52.290;-1.474;2022-12-19T02:08:02;99679.67;;;8.95;100.00
55755;BME280;41674;52.290;-1.474;2022-12-19T02:10:31;99685.00;;;8.76;100.00
55755;BME280;41674;52.290;-1.474;2022-12-19T02:13:01;99688.41;;;8.75;100.00
55755;BME280;41674;52.290;-1.474;2022-12-19T02:15:38;99686.96;;;9.32;100.00
55755;BME280;41674;52.290;-1.474;2022-12-19T02:18:06;99690.39;;;9.09;100.00
55755;BME280;41674;52.290;-1.474;2022-12-19T02:23:13;99703.72;;;8.99;100.00
55755;BME280;41674;52.290;-1.474;2022-12-19T02:25:48;99704.50;;;8.99;100.00
55755;BME280;41674;52.290;-1.474;2022-12-19T02:30:41;99689.67;;;9.28;100.00
55755;BME280;41674;52.290;-1.474;2022-12-19T02:33:01;99691.85;;;9.10;100.00
55755;BME280;41674;52.290;-1.474;2022-12-19T02:35:32;99677.75;;;9.34;100.00
55755;BME280;41674;52.290;-1.474;2022-12-19T02:38:07;99678.39;;;9.44;100.00
55755;BME280;41674;52.290;-1.474;2022-12-19T02:40:29;99677.65;;;9.74;100.00
55755;BME280;41674;52.290;-1.474;2022-12-19T02:42:58;99680.12;;;9.66;100.00
55755;BME280;41674;52.290;-1.474;2022-12-19T02:45:29;99693.70;;;9.08;100.00
55755;BME280;41674;52.290;-1.474;2022-12-19T02:47:56;99683.06;;;9.66;100.00
55755;BME280;41674;52.290;-1.474;2022-12-19T02:50:25;99683.86;;;9.35;100.00
55755;BME280;41674;52.290;-1.474;2022-12-19T02:52:54;99688.83;;;8.92;100.00
55755;BME280;41674;52.290;-1.474;2022-12-19T02:55:25;99688.64;;;9.45;100.00
55755;BME280;41674;52.290;-1.474;2022-12-19T03:00:24;99679.47;;;9.57;100.00
55755;BME280;41674;52.290;-1.474;2022-12-19T03:02:56;99679.34;;;9.31;100.00
55755;BME280;41674;52.290;-1.474;2022-12-19T03:05:26;99676.00;;;9.72;100.00
55755;BME280;41674;52.290;-1.474;2022-12-19T03:07:56;99685.28;;;9.62;100.00
55755;BME280;41674;52.290;-1.474;2022-12-19T03:10:27;99671.73;;;9.64;100.00
55755;BME280;41674;52.290;-1.474;2022-12-19T03:12:56;99680.62;;;9.93;100.00
55755;BME280;41674;52.290;-1.474;2022-12-19T03:15:21;99682.02;;;9.73;100.00
55755;BME280;41674;52.290;-1.474;2022-12-19T03:17:56;99687.35;;;9.67;100.00
55755;BME280;41674;52.290;-1.474;2022-12-19T03:20:25;99680.72;;;10.37;100.00
55755;BME280;41674;52.290;-1.474;2022-12-19T03:22:49;99689.10;;;10.18;100.00
55755;BME280;41674;52.290;-1.474;2022-12-19T03:25:21;99683.84;;;10.27;100.00
55755;BME280;41674;52.290;-1.474;2022-12-19T03:27:51;99696.40;;;9.78;100.00
55755;BME280;41674;52.290;-1.474;2022-12-19T03:30:18;99699.64;;;9.82;100.00
55755;BME280;41674;52.290;-1.474;2022-12-19T03:32:48;99688.96;;;9.99;100.00
55755;BME280;41674;52.290;-1.474;2022-12-19T03:35:20;99689.69;;;10.38;100.00
55755;BME280;41674;52.290;-1.474;2022-12-19T03:37:48;99693.30;;;10.37;100.00
55755;BME280;41674;52.290;-1.474;2022-12-19T03:40:18;99693.67;;;9.33;100.00
55755;BME280;41674;52.290;-1.474;2022-12-19T03:42:47;99697.15;;;9.59;100.00
55755;BME280;41674;52.290;-1.474;2022-12-19T03:45:19;99684.76;;;9.55;100.00
55755;BME280;41674;52.290;-1.474;2022-12-19T03:47:49;99680.22;;;9.88;100.00
55755;BME280;41674;52.290;-1.474;2022-12-19T03:50:14;99681.62;;;9.91;100.00
55755;BME280;41674;52.290;-1.474;2022-12-19T03:52:47;99685.00;;;10.01;100.00
55755;BME280;41674;52.290;-1.474;2022-12-19T03:55:18;99694.39;;;9.80;100.00
55755;BME280;41674;52.290;-1.474;2022-12-19T03:57:49;99690.84;;;10.08;100.00
55755;BME280;41674;52.290;-1.474;2022-12-19T04:00:15;99690.88;;;10.02;100.00
55755;BME280;41674;52.290;-1.474;2022-12-19T04:02:44;99697.91;;;10.47;100.00
55755;BME280;41674;52.290;-1.474;2022-12-19T04:05:14;99706.29;;;10.34;100.00
55755;BME280;41674;52.290;-1.474;2022-12-19T04:07:41;99699.77;;;9.83;100.00
55755;BME280;41674;52.290;-1.474;2022-12-19T04:10:13;99692.11;;;9.73;100.00
55755;BME280;41674;52.290;-1.474;2022-12-19T04:12:44;99692.79;;;9.94;100.00
55755;BME280;41674;52.290;-1.474;2022-12-19T04:15:11;99687.92;;;9.90;100.00
55755;BME280;41674;52.290;-1.474;2022-12-19T04:17:43;99686.32;;;9.67;100.00
55755;BME280;41674;52.290;-1.474;2022-12-19T04:20:11;99689.98;;;9.43;100.00
55755;BME280;41674;52.290;-1.474;2022-12-19T04:22:41;99696.88;;;10.08;100.00
55755;BME280;41674;52.290;-1.474;2022-12-19T04:25:11;99686.53;;;9.94;100.00
55755;BME280;41674;52.290;-1.474;2022-12-19T04:27:47;99699.10;;;9.95;100.00
55755;BME280;41674;52.290;-1.474;2022-12-19T04:30:08;99682.31;;;10.08;100.00
55755;BME280;41674;52.290;-1.474;2022-12-19T04:32:37;99701.22;;;9.96;100.00
55755;BME280;41674;52.290;-1.474;2022-12-19T04:35:07;99704.21;;;9.98;100.00
55755;BME280;41674;52.290;-1.474;2022-12-19T04:37:36;99701.67;;;10.04;100.00
55755;BME280;41674;52.290;-1.474;2022-12-19T04:40:07;99695.95;;;10.27;100.00
55755;BME280;41674;52.290;-1.474;2022-12-19T04:42:35;99699.17;;;10.09;100.00
55755;BME280;41674;52.290;-1.474;2022-12-19T04:45:06;99701.72;;;10.30;100.00
55755;BME280;41674;52.290;-1.474;2022-12-19T04:47:34;99696.27;;;10.42;100.00
55755;BME280;41674;52.290;-1.474;2022-12-19T04:50:04;99701.36;;;10.27;100.00
55755;BME280;41674;52.290;-1.474;2022-12-19T04:52:33;99691.08;;;10.49;100.00
55755;BME280;41674;52.290;-1.474;2022-12-19T04:55:03;99691.78;;;10.60;100.00
55755;BME280;41674;52.290;-1.474;2022-12-19T04:57:32;99691.14;;;10.12;100.00
55755;BME280;41674;52.290;-1.474;2022-12-19T05:00:03;99694.78;;;10.05;100.00
55755;BME280;41674;52.290;-1.474;2022-12-19T05:02:31;99690.98;;;9.77;100.00
55755;BME280;41674;52.290;-1.474;2022-12-19T05:05:01;99690.58;;;10.01;100.00
55755;BME280;41674;52.290;-1.474;2022-12-19T05:07:30;99683.37;;;10.18;100.00
55755;BME280;41674;52.290;-1.474;2022-12-19T05:10:00;99684.99;;;10.78;100.00
55755;BME280;41674;52.290;-1.474;2022-12-19T05:12:30;99687.20;;;10.27;100.00
55755;BME280;41674;52.290;-1.474;2022-12-19T05:14:59;99681.42;;;10.63;100.00
55755;BME280;41674;52.290;-1.474;2022-12-19T05:17:29;99675.96;;;10.15;100.00
55755;BME280;41674;52.290;-1.474;2022-12-19T05:19:58;99682.26;;;10.15;100.00
55755;BME280;41674;52.290;-1.474;2022-12-19T05:22:28;99675.37;;;9.73;100.00
55755;BME280;41674;52.290;-1.474;2022-12-19T05:24:57;99661.97;;;10.26;100.00
55755;BME280;41674;52.290;-1.474;2022-12-19T05:27:27;99668.83;;;10.43;100.00
55755;BME280;41674;52.290;-1.474;2022-12-19T05:29:56;99651.98;;;9.95;100.00
55755;BME280;41674;52.290;-1.474;2022-12-19T05:32:29;99645.22;;;10.08;100.00
55755;BME280;41674;52.290;-1.474;2022-12-19T05:37:25;99661.45;;;10.28;100.00
55755;BME280;41674;52.290;-1.474;2022-12-19T05:39:55;99649.32;;;10.03;100.00
55755;BME280;41674;52.290;-1.474;2022-12-19T05:42:25;99653.24;;;10.30;100.00
55755;BME280;41674;52.290;-1.474;2022-12-19T05:44:54;99650.78;;;10.08;100.00
55755;BME280;41674;52.290;-1.474;2022-12-19T05:47:23;99647.87;;;10.25;100.00
55755;BME280;41674;52.290;-1.474;2022-12-19T05:49:53;99655.34;;;10.28;100.00
55755;BME280;41674;52.290;-1.474;2022-12-19T05:52:22;99651.61;;;10.18;100.00
55755;BME280;41674;52.290;-1.474;2022-12-19T05:54:52;99642.87;;;9.81;100.00
55755;BME280;41674;52.290;-1.474;2022-12-19T05:57:22;99649.26;;;10.27;100.00
55755;BME280;41674;52.290;-1.474;2022-12-19T05:59:51;99655.00;;;10.31;100.00
55755;BME280;41674;52.290;-1.474;2022-12-19T06:02:21;99646.08;;;10.51;100.00
55755;BME280;41674;52.290;-1.474;2022-12-19T06:04:51;99638.98;;;10.01;100.00
55755;BME280;41674;52.290;-1.474;2022-12-19T06:07:20;99647.03;;;9.60;100.00
55755;BME280;41674;52.290;-1.474;2022-12-19T06:09:50;99649.51;;;9.51;100.00
55755;BME280;41674;52.290;-1.474;2022-12-19T06:12:19;99649.70;;;9.82;100.00
55755;BME280;41674;52.290;-1.474;2022-12-19T06:14:49;99656.39;;;10.07;100.00
55755;BME280;41674;52.290;-1.474;2022-12-19T06:17:23;99655.22;;;10.00;100.00
55755;BME280;41674;52.290;-1.474;2022-12-19T06:19:48;99649.17;;;9.54;100.00
55755;BME280;41674;52.290;-1.474;2022-12-19T06:22:17;99645.32;;;9.59;100.00
55755;BME280;41674;52.290;-1.474;2022-12-19T06:24:47;99637.67;;;9.67;100.00
55755;BME280;41674;52.290;-1.474;2022-12-19T06:27:16;99636.22;;;9.54;100.00
55755;BME280;41674;52.290;-1.474;2022-12-19T06:29:46;99642.96;;;9.82;100.00
55755;BME280;41674;52.290;-1.474;2022-12-19T06:32:15;99647.38;;;9.81;100.00
55755;BME280;41674;52.290;-1.474;2022-12-19T06:34:45;99647.50;;;9.80;100.00
55755;BME280;41674;52.290;-1.474;2022-12-19T06:37:15;99648.05;;;10.02;100.00
55755;BME280;41674;52.290;-1.474;2022-12-19T06:39:44;99659.11;;;9.49;100.00
55755;BME280;41674;52.290;-1.474;2022-12-19T06:42:14;99656.94;;;9.69;100.00
55755;BME280;41674;52.290;-1.474;2022-12-19T06:44:43;99665.08;;;9.60;100.00
55755;BME280;41674;52.290;-1.474;2022-12-19T06:47:13;99655.02;;;9.41;100.00
55755;BME280;41674;52.290;-1.474;2022-12-19T06:49:42;99653.64;;;10.11;100.00
55755;BME280;41674;52.290;-1.474;2022-12-19T06:52:12;99658.02;;;9.63;100.00
55755;BME280;41674;52.290;-1.474;2022-12-19T06:54:41;99656.75;;;9.16;100.00
55755;BME280;41674;52.290;-1.474;2022-12-19T06:57:11;99650.34;;;9.73;100.00
55755;BME280;41674;52.290;-1.474;2022-12-19T06:59:41;99653.17;;;9.91;100.00
55755;BME280;41674;52.290;-1.474;2022-12-19T07:02:20;99653.43;;;10.01;100.00
55755;BME280;41674;52.290;-1.474;2022-12-19T07:04:43;99650.13;;;9.76;100.00
55755;BME280;41674;52.290;-1.474;2022-12-19T07:07:09;99651.50;;;9.98;100.00
55755;BME280;41674;52.290;-1.474;2022-12-19T07:09:39;99662.53;;;10.19;100.00
55755;BME280;41674;52.290;-1.474;2022-12-19T07:12:09;99672.85;;;9.80;100.00
55755;BME280;41674;52.290;-1.474;2022-12-19T07:14:38;99667.36;;;10.37;100.00
55755;BME280;41674;52.290;-1.474;2022-12-19T07:17:08;99655.46;;;10.54;100.00
55755;BME280;41674;52.290;-1.474;2022-12-19T07:19:38;99660.12;;;10.21;100.00
55755;BME280;41674;52.290;-1.474;2022-12-19T07:22:07;99653.87;;;10.39;100.00
55755;BME280;41674;52.290;-1.474;2022-12-19T07:24:36;99652.51;;;9.90;100.00
55755;BME280;41674;52.290;-1.474;2022-12-19T07:27:07;99642.87;;;10.18;100.00
55755;BME280;41674;52.290;-1.474;2022-12-19T07:29:35;99656.29;;;10.32;100.00
55755;BME280;41674;52.290;-1.474;2022-12-19T07:32:05;99654.27;;;10.46;100.00
55755;BME280;41674;52.290;-1.474;2022-12-19T07:34:35;99647.75;;;10.53;100.00
55755;BME280;41674;52.290;-1.474;2022-12-19T07:37:04;99654.55;;;9.73;100.00
55755;BME280;41674;52.290;-1.474;2022-12-19T07:39:34;99650.75;;;10.48;100.00
55755;BME280;41674;52.290;-1.474;2022-12-19T07:42:08;99661.66;;;10.06;100.00
55755;BME280;41674;52.290;-1.474;2022-12-19T07:44:33;99660.41;;;10.39;100.00
55755;BME280;41674;52.290;-1.474;2022-12-19T07:47:02;99663.82;;;10.00;100.00
55755;BME280;41674;52.290;-1.474;2022-12-19T07:49:32;99665.41;;;9.71;100.00
55755;BME280;41674;52.290;-1.474;2022-12-19T07:52:02;99669.11;;;10.11;100.00
55755;BME280;41674;52.290;-1.474;2022-12-19T07:54:31;99677.28;;;10.44;100.00
55755;BME280;41674;52.290;-1.474;2022-12-19T07:57:01;99673.27;;;9.59;100.00
55755;BME280;41674;52.290;-1.474;2022-12-19T07:59:30;99674.76;;;10.25;100.00
55755;BME280;41674;52.290;-1.474;2022-12-19T08:02:00;99685.47;;;10.13;100.00
55755;BME280;41674;52.290;-1.474;2022-12-19T08:04:29;99673.60;;;10.28;100.00
55755;BME280;41674;52.290;-1.474;2022-12-19T08:06:59;99685.60;;;10.43;100.00
55755;BME280;41674;52.290;-1.474;2022-12-19T08:09:28;99676.08;;;10.70;100.00
55755;BME280;41674;52.290;-1.474;2022-12-19T08:11:58;99676.42;;;10.54;100.00
55755;BME280;41674;52.290;-1.474;2022-12-19T08:14:28;99672.10;;;10.35;100.00
55755;BME280;41674;52.290;-1.474;2022-12-19T08:16:57;99672.87;;;10.09;100.00
55755;BME280;41674;52.290;-1.474;2022-12-19T08:19:27;99661.69;;;9.96;100.00
55755;BME280;41674;52.290;-1.474;2022-12-19T08:21:56;99664.07;;;10.44;100.00
55755;BME280;41674;52.290;-1.474;2022-12-19T08:24:26;99651.93;;;9.76;100.00
55755;BME280;41674;52.290;-1.474;2022-12-19T08:26:55;99660.33;;;10.29;100.00
55755;BME280;41674;52.290;-1.474;2022-12-19T08:29:25;99664.60;;;10.42;100.00
55755;BME280;41674;52.290;-1.474;2022-12-19T08:31:55;99665.60;;;9.97;100.00
55755;BME280;41674;52.290;-1.474;2022-12-19T08:34:24;99659.98;;;9.80;100.00
55755;BME280;41674;52.290;-1.474;2022-12-19T08:36:54;99671.18;;;10.03;100.00
55755;BME280;41674;52.290;-1.474;2022-12-19T08:39:23;99679.19;;;9.87;100.00
55755;BME280;41674;52.290;-1.474;2022-12-19T08:41:53;99683.76;;;9.66;100.00
55755;BME280;41674;52.290;-1.474;2022-12-19T08:44:22;99684.23;;;10.41;100.00
55755;BME280;41674;52.290;-1.474;2022-12-19T08:46:52;99679.97;;;9.90;100.00
55755;BME280;41674;52.290;-1.474;2022-12-19T08:49:21;99670.18;;;10.13;100.00
55755;BME280;41674;52.290;-1.474;2022-12-19T08:51:51;99669.04;;;10.38;100.00
55755;BME280;41674;52.290;-1.474;2022-12-19T08:54:20;99670.18;;;10.23;100.00
55755;BME280;41674;52.290;-1.474;2022-12-19T08:56:50;99667.65;;;10.16;100.00
55755;BME280;41674;52.290;-1.474;2022-12-19T08:59:24;99676.39;;;9.95;100.00
55755;BME280;41674;52.290;-1.474;2022-12-19T09:01:49;99676.25;;;10.13;100.00
55755;BME280;41674;52.290;-1.474;2022-12-19T09:04:24;99678.23;;;9.79;100.00
55755;BME280;41674;52.290;-1.474;2022-12-19T09:06:48;99664.64;;;9.85;100.00
55755;BME280;41674;52.290;-1.474;2022-12-19T09:09:18;99675.04;;;9.77;100.00
55755;BME280;41674;52.290;-1.474;2022-12-19T09:11:47;99687.80;;;9.94;100.00
55755;BME280;41674;52.290;-1.474;2022-12-19T09:14:17;99692.74;;;9.95;100.00
55755;BME280;41674;52.290;-1.474;2022-12-19T09:16:52;99682.69;;;10.36;100.00
55755;BME280;41674;52.290;-1.474;2022-12-19T09:19:16;99697.92;;;9.85;100.00
55755;BME280;41674;52.290;-1.474;2022-12-19T09:21:45;99698.77;;;9.80;100.00
55755;BME280;41674;52.290;-1.474;2022-12-19T09:24:15;99688.76;;;9.93;100.00
55755;BME280;41674;52.290;-1.474;2022-12-19T09:26:45;99696.92;;;10.17;100.00
55755;BME280;41674;52.290;-1.474;2022-12-19T09:29:14;99702.24;;;10.10;100.00
55755;BME280;41674;52.290;-1.474;2022-12-19T09:31:44;99698.06;;;10.14;100.00
55755;BME280;41674;52.290;-1.474;2022-12-19T09:34:13;99700.02;;;10.16;100.00
55755;BME280;41674;52.290;-1.474;2022-12-19T09:36:43;99696.38;;;9.84;100.00
55755;BME280;41674;52.290;-1.474;2022-12-19T09:39:12;99686.42;;;10.19;100.00
55755;BME280;41674;52.290;-1.474;2022-12-19T09:41:58;99680.20;;;9.66;100.00
55755;BME280;41674;52.290;-1.474;2022-12-19T09:44:23;99686.49;;;9.92;100.00
55755;BME280;41674;52.290;-1.474;2022-12-19T09:46:46;99679.82;;;10.12;100.00
55755;BME280;41674;52.290;-1.474;2022-12-19T09:49:15;99658.47;;;10.14;100.00
55755;BME280;41674;52.290;-1.474;2022-12-19T09:51:52;99655.71;;;10.43;100.00
55755;BME280;41674;52.290;-1.474;2022-12-19T09:54:13;99642.49;;;10.19;100.00
55755;BME280;41674;52.290;-1.474;2022-12-19T09:56:42;99617.50;;;10.70;100.00
55755;BME280;41674;52.290;-1.474;2022-12-19T09:59:13;99636.31;;;10.69;100.00
55755;BME280;41674;52.290;-1.474;2022-12-19T10:01:47;99649.91;;;10.29;100.00
55755;BME280;41674;52.290;-1.474;2022-12-19T10:04:10;99644.68;;;10.40;100.00
55755;BME280;41674;52.290;-1.474;2022-12-19T10:06:38;99644.22;;;10.50;100.00
55755;BME280;41674;52.290;-1.474;2022-12-19T10:09:11;99643.20;;;10.65;100.00
55755;BME280;41674;52.290;-1.474;2022-12-19T10:11:49;99647.59;;;10.39;100.00
55755;BME280;41674;52.290;-1.474;2022-12-19T10:14:18;99663.41;;;10.15;100.00
55755;BME280;41674;52.290;-1.474;2022-12-19T10:16:47;99647.57;;;10.07;100.00
55755;BME280;41674;52.290;-1.474;2022-12-19T10:19:08;99630.02;;;10.96;100.00
55755;BME280;41674;52.290;-1.474;2022-12-19T10:21:40;99645.39;;;10.61;100.00
55755;BME280;41674;52.290;-1.474;2022-12-19T10:24:19;99638.82;;;10.42;100.00
55755;BME280;41674;52.290;-1.474;2022-12-19T10:26:39;99643.59;;;10.53;100.00
55755;BME280;41674;52.290;-1.474;2022-12-19T10:29:19;99647.89;;;11.01;100.00
55755;BME280;41674;52.290;-1.474;2022-12-19T10:31:38;99648.17;;;10.68;100.00
55755;BME280;41674;52.290;-1.474;2022-12-19T10:34:18;99656.54;;;10.21;100.00
55755;BME280;41674;52.290;-1.474;2022-12-19T10:36:39;99647.45;;;10.37;100.00
55755;BME280;41674;52.290;-1.474;2022-12-19T10:39:07;99661.95;;;10.40;100.00
55755;BME280;41674;52.290;-1.474;2022-12-19T10:41:32;99658.90;;;10.90;100.00
55755;BME280;41674;52.290;-1.474;2022-12-19T10:44:03;99666.98;;;10.64;100.00
55755;BME280;41674;52.290;-1.474;2022-12-19T10:46:39;99665.22;;;10.80;100.00
55755;BME280;41674;52.290;-1.474;2022-12-19T10:49:01;99664.67;;;10.19;100.00
55755;BME280;41674;52.290;-1.474;2022-12-19T10:51:31;99667.00;;;10.63;100.00
55755;BME280;41674;52.290;-1.474;2022-12-19T10:53:59;99672.08;;;10.64;100.00
55755;BME280;41674;52.290;-1.474;2022-12-19T10:56:30;99662.84;;;10.39;100.00
55755;BME280;41674;52.290;-1.474;2022-12-19T10:58:59;99656.29;;;10.55;100.00
55755;BME280;41674;52.290;-1.474;2022-12-19T11:01:30;99658.48;;;10.31;100.00
55755;BME280;41674;52.290;-1.474;2022-12-19T11:04:15;99658.40;;;10.06;100.00
55755;BME280;41674;52.290;-1.474;2022-12-19T11:06:45;99647.07;;;10.14;100.00
55755;BME280;41674;52.290;-1.474;2022-12-19T11:11:33;99642.42;;;9.90;100.00
55755;BME280;41674;52.290;-1.474;2022-12-19T11:13:56;99635.62;;;10.06;100.00
55755;BME280;41674;52.290;-1.474;2022-12-19T11:16:34;99625.19;;;10.35;100.00
55755;BME280;41674;52.290;-1.474;2022-12-19T11:18:55;99618.51;;;10.43;100.00
55755;BME280;41674;52.290;-1.474;2022-12-19T11:21:28;99617.16;;;10.40;100.00
55755;BME280;41674;52.290;-1.474;2022-12-19T11:24:00;99626.63;;;9.98;100.00
55755;BME280;41674;52.290;-1.474;2022-12-19T11:26:28;99608.92;;;10.09;100.00
55755;BME280;41674;52.290;-1.474;2022-12-19T11:28:54;99592.96;;;10.09;100.00
55755;BME280;41674;52.290;-1.474;2022-12-19T11:31:24;99615.30;;;10.46;100.00
55755;BME280;41674;52.290;-1.474;2022-12-19T11:33:54;99610.22;;;10.55;100.00
55755;BME280;41674;52.290;-1.474;2022-12-19T11:36:33;99611.77;;;10.24;100.00
55755;BME280;41674;52.290;-1.474;2022-12-19T11:38:52;99619.26;;;10.45;100.00
55755;BME280;41674;52.290;-1.474;2022-12-19T11:41:31;99594.09;;;10.43;100.00
55755;BME280;41674;52.290;-1.474;2022-12-19T11:43:54;99592.15;;;10.39;100.00
55755;BME280;41674;52.290;-1.474;2022-12-19T11:46:32;99580.52;;;10.50;100.00
55755;BME280;41674;52.290;-1.474;2022-12-19T11:48:52;99570.12;;;10.44;100.00
55755;BME280;41674;52.290;-1.474;2022-12-19T11:51:23;99559.44;;;10.68;100.00
55755;BME280;41674;52.290;-1.474;2022-12-19T11:53:54;99557.99;;;10.89;100.00
55755;BME280;41674;52.290;-1.474;2022-12-19T11:56:24;99570.17;;;10.74;100.00
55755;BME280;41674;52.290;-1.474;2022-12-19T11:58:50;99556.27;;;10.63;100.00
55755;BME280;41674;52.290;-1.474;2022-12-19T12:01:27;99577.15;;;10.95;100.00
55755;BME280;41674;52.290;-1.474;2022-12-19T12:04:00;99577.49;;;10.62;100.00
55755;BME280;41674;52.290;-1.474;2022-12-19T12:06:17;99549.39;;;10.44;100.00
55755;BME280;41674;52.290;-1.474;2022-12-19T12:08:57;99547.55;;;10.66;100.00
55755;BME280;41674;52.290;-1.474;2022-12-19T12:11:23;99537.46;;;10.60;100.00
55755;BME280;41674;52.290;-1.474;2022-12-19T12:13:59;99541.27;;;10.16;100.00
55755;BME280;41674;52.290;-1.474;2022-12-19T12:16:16;99541.31;;;10.70;100.00
55755;BME280;41674;52.290;-1.474;2022-12-19T12:18:57;99534.57;;;10.78;100.00
55755;BME280;41674;52.290;-1.474;2022-12-19T12:21:21;99526.72;;;10.79;100.00
55755;BME280;41674;52.290;-1.474;2022-12-19T12:23:54;99541.75;;;10.47;100.00
55755;BME280;41674;52.290;-1.474;2022-12-19T12:26:17;99536.86;;;10.24;100.00
55755;BME280;41674;52.290;-1.474;2022-12-19T12:28:51;99538.18;;;10.11;100.00
55755;BME280;41674;52.290;-1.474;2022-12-19T12:31:23;99543.83;;;10.43;100.00
55755;BME280;41674;52.290;-1.474;2022-12-19T12:33:50;99552.13;;;10.36;100.00
55755;BME280;41674;52.290;-1.474;2022-12-19T12:36:21;99546.87;;;9.95;100.00
55755;BME280;41674;52.290;-1.474;2022-12-19T12:38:53;99549.36;;;10.28;100.00
55755;BME280;41674;52.290;-1.474;2022-12-19T12:41:22;99536.58;;;10.35;100.00
55755;BME280;41674;52.290;-1.474;2022-12-19T12:43:50;99532.24;;;10.36;100.00
55755;BME280;41674;52.290;-1.474;2022-12-19T12:46:14;99532.98;;;10.34;100.00
55755;BME280;41674;52.290;-1.474;2022-12-19T12:48:44;99534.09;;;10.81;100.00
55755;BME280;41674;52.290;-1.474;2022-12-19T12:51:14;99533.94;;;10.19;100.00
55755;BME280;41674;52.290;-1.474;2022-12-19T12:53:41;99532.55;;;9.91;100.00
55755;BME280;41674;52.290;-1.474;2022-12-19T12:56:11;99514.27;;;10.10;100.00
55755;BME280;41674;52.290;-1.474;2022-12-19T13:01:09;99514.20;;;9.84;100.00
55755;BME280;41674;52.290;-1.474;2022-12-19T13:03:36;99509.05;;;9.98;100.00
55755;BME280;41674;52.290;-1.474;2022-12-19T13:06:17;99515.75;;;10.16;100.00
55755;BME280;41674;52.290;-1.474;2022-12-19T13:08:44;99506.44;;;10.35;100.00
55755;BME280;41674;52.290;-1.474;2022-12-19T13:11:10;99511.89;;;10.35;100.00